Terminal Aerodrome Forecast
Issued by NWS

Home | Current Version | Previous Version | Text Only | Print | Product List | Glossary On
Versions: 1 2 3 4 5 6 7 8 9 10 11 12 13 14 15
000
FTAK31 PAJN 311600 AAB
TAFASI
TAF AMD
PASI 311622Z 3116/0112 VRB03KT P6SM FEW005
      TEMPO 3116/3118 3SM BR BKN003
     FM311800 27005KT P6SM SCT040 BKN120
     FM312200 24006KT P6SM FEW040 SCT120
     FM010400 34003KT P6SM SCT120=

USA.gov is the U.S. government's official web portal to all federal, state and local government web resources and services.